createdAt,value
2022-07-31T00:02:08.344Z,19.60
2022-07-31T00:04:35.208Z,19.60
2022-07-31T00:07:02.657Z,19.50
2022-07-31T00:09:53.703Z,19.50
2022-07-31T00:12:17.636Z,19.50
2022-07-31T00:14:45.392Z,19.40
2022-07-31T00:17:12.323Z,19.40
2022-07-31T00:19:39.411Z,19.30
2022-07-31T00:22:06.299Z,19.30
2022-07-31T00:24:33.915Z,19.30
2022-07-31T00:27:01.374Z,19.20
2022-07-31T00:29:28.575Z,19.20
2022-07-31T00:31:55.568Z,19.10
2022-07-31T00:34:23.004Z,19.10
2022-07-31T00:36:49.925Z,19.00
2022-07-31T00:39:16.859Z,19.00
2022-07-31T00:41:45.669Z,18.90
2022-07-31T00:44:13.977Z,18.90
2022-07-31T00:46:42.047Z,18.90
2022-07-31T00:49:10.227Z,18.90
2022-07-31T00:51:38.788Z,18.90
2022-07-31T00:54:09.447Z,18.80
2022-07-31T00:56:37.292Z,18.80
2022-07-31T00:59:05.019Z,18.80
2022-07-31T01:01:32.400Z,18.80
2022-07-31T01:03:59.316Z,18.80
2022-07-31T01:06:26.320Z,18.80
2022-07-31T01:08:53.270Z,18.80
2022-07-31T01:11:33.813Z,18.80
2022-07-31T01:14:05.529Z,18.80
2022-07-31T01:16:36.712Z,18.80
2022-07-31T01:19:23.754Z,18.80
2022-07-31T01:22:40.283Z,18.80
2022-07-31T01:25:12.362Z,18.70
2022-07-31T01:27:54.321Z,18.70
2022-07-31T01:30:28.951Z,18.70
2022-07-31T01:32:59.805Z,18.70
2022-07-31T01:35:32.536Z,18.70
2022-07-31T01:38:18.971Z,18.60
2022-07-31T01:40:50.665Z,18.60
2022-07-31T01:43:27.507Z,18.60
2022-07-31T01:45:57.695Z,18.60
2022-07-31T01:48:25.871Z,18.60
2022-07-31T01:50:55.889Z,18.60
2022-07-31T01:53:24.946Z,18.60
2022-07-31T01:55:56.708Z,18.60
2022-07-31T01:58:35.324Z,18.60
2022-07-31T02:01:04.396Z,18.60
2022-07-31T02:03:43.469Z,18.60
2022-07-31T02:06:17.819Z,18.60
2022-07-31T02:08:47.423Z,18.60
2022-07-31T02:11:16.801Z,18.60
2022-07-31T02:13:45.969Z,18.60
2022-07-31T02:16:14.725Z,18.60
2022-07-31T02:18:42.898Z,18.70
2022-07-31T02:21:10.276Z,18.60
2022-07-31T02:23:38.313Z,18.60
2022-07-31T02:26:07.048Z,18.60
2022-07-31T02:28:38.123Z,18.60
2022-07-31T02:31:10.160Z,18.60
2022-07-31T02:33:38.202Z,18.60
2022-07-31T02:36:06.610Z,18.60
2022-07-31T02:38:35.366Z,18.60
2022-07-31T02:41:05.017Z,18.60
2022-07-31T02:43:34.908Z,18.70
2022-07-31T02:46:03.101Z,18.70
2022-07-31T02:48:32.083Z,18.70
2022-07-31T02:50:59.724Z,18.70
2022-07-31T02:53:27.106Z,18.70
2022-07-31T02:55:54.535Z,18.70
2022-07-31T02:58:21.499Z,18.70
2022-07-31T03:00:57.525Z,18.70
2022-07-31T03:03:24.552Z,18.60
2022-07-31T03:05:52.238Z,18.60
2022-07-31T03:08:19.231Z,18.60
2022-07-31T03:10:47.116Z,18.60
2022-07-31T03:13:15.680Z,18.50
2022-07-31T03:15:50.281Z,18.50
2022-07-31T03:18:21.587Z,18.50
2022-07-31T03:20:51.837Z,18.50
2022-07-31T03:23:22.568Z,18.50
2022-07-31T03:25:50.874Z,18.50
2022-07-31T03:28:21.446Z,18.50
2022-07-31T03:30:56.229Z,18.50
2022-07-31T03:33:23.866Z,18.50
2022-07-31T03:35:51.125Z,18.50
2022-07-31T03:38:41.844Z,18.50
2022-07-31T03:41:05.526Z,18.50
2022-07-31T03:43:47.651Z,18.50
2022-07-31T03:46:18.535Z,18.50
2022-07-31T03:48:46.678Z,18.40
2022-07-31T03:51:14.371Z,18.40
2022-07-31T03:53:42.463Z,18.40
2022-07-31T03:56:10.402Z,18.40
2022-07-31T03:58:37.999Z,18.30
2022-07-31T04:01:09.740Z,18.30
2022-07-31T04:03:39.198Z,18.30
2022-07-31T04:06:06.476Z,18.30
2022-07-31T04:08:34.241Z,18.30
2022-07-31T04:11:01.163Z,18.40
2022-07-31T04:13:28.430Z,18.40
2022-07-31T04:15:55.354Z,18.40
2022-07-31T04:18:22.346Z,18.40
2022-07-31T04:20:49.262Z,18.40
2022-07-31T04:23:16.846Z,18.40
2022-07-31T04:25:43.767Z,18.50
2022-07-31T04:28:11.069Z,18.50
2022-07-31T04:30:38.218Z,18.60
2022-07-31T04:33:05.385Z,18.70
2022-07-31T04:35:32.262Z,18.80
2022-07-31T04:37:59.203Z,19.00
2022-07-31T04:40:27.450Z,19.10
2022-07-31T04:42:55.037Z,19.30
2022-07-31T04:45:21.984Z,19.60
2022-07-31T04:47:48.979Z,19.90
2022-07-31T04:50:15.903Z,20.10
2022-07-31T04:52:42.770Z,20.30
2022-07-31T04:55:10.171Z,20.40
2022-07-31T04:57:37.158Z,20.50
2022-07-31T05:00:09.545Z,20.70
2022-07-31T05:02:37.070Z,20.80
2022-07-31T05:05:04.641Z,21.10
2022-07-31T05:07:31.578Z,21.80
2022-07-31T05:09:58.739Z,22.80
2022-07-31T05:12:26.112Z,24.10
2022-07-31T05:14:53.541Z,25.50
2022-07-31T05:17:20.533Z,26.90
2022-07-31T05:19:47.672Z,28.00
2022-07-31T05:22:14.696Z,28.80
2022-07-31T05:24:43.042Z,28.60
2022-07-31T05:27:13.053Z,28.30
2022-07-31T05:29:39.986Z,27.90
2022-07-31T05:32:07.137Z,28.30
2022-07-31T05:34:34.100Z,29.40
2022-07-31T05:37:02.054Z,30.30
2022-07-31T05:39:30.123Z,30.20
2022-07-31T05:41:57.152Z,29.80
2022-07-31T05:44:24.556Z,29.40
2022-07-31T05:49:18.357Z,29.00
2022-07-31T05:51:46.874Z,28.90
2022-07-31T05:54:14.485Z,28.80
2022-07-31T05:56:41.495Z,28.60
2022-07-31T05:59:09.647Z,28.40
2022-07-31T06:01:37.338Z,28.10
2022-07-31T06:04:04.605Z,27.80
2022-07-31T06:06:31.527Z,27.40
2022-07-31T06:09:03.788Z,27.00
2022-07-31T06:11:31.806Z,26.70
2022-07-31T06:13:58.825Z,26.30
2022-07-31T06:16:25.757Z,26.00
2022-07-31T06:18:52.794Z,25.70
2022-07-31T06:23:45.628Z,25.30
2022-07-31T06:26:12.787Z,25.20
2022-07-31T06:28:48.495Z,25.10
2022-07-31T06:31:21.011Z,25.00
2022-07-31T06:33:49.471Z,24.80
2022-07-31T06:36:17.840Z,24.70
2022-07-31T06:38:45.891Z,24.60
2022-07-31T06:41:32.928Z,24.60
2022-07-31T06:43:59.865Z,24.60
2022-07-31T06:46:27.124Z,24.70
2022-07-31T06:48:54.172Z,24.90
2022-07-31T06:51:30.895Z,25.00
2022-07-31T06:54:03.324Z,25.10
2022-07-31T06:56:31.669Z,25.30
2022-07-31T06:58:59.019Z,25.40
2022-07-31T07:01:26.063Z,25.50
2022-07-31T07:03:53.455Z,25.60
2022-07-31T07:06:20.497Z,25.70
2022-07-31T07:08:47.345Z,25.70
2022-07-31T07:11:14.625Z,25.70
2022-07-31T07:13:45.876Z,25.70
2022-07-31T07:16:14.795Z,25.80
2022-07-31T07:18:42.998Z,25.80
2022-07-31T07:21:10.046Z,25.80
2022-07-31T07:23:37.065Z,25.80
2022-07-31T07:26:04.488Z,25.90
2022-07-31T07:28:31.633Z,26.10
2022-07-31T07:30:58.628Z,26.30
2022-07-31T07:33:40.579Z,26.50
2022-07-31T07:36:23.379Z,26.80
2022-07-31T07:38:53.599Z,27.20
2022-07-31T07:41:23.336Z,27.40
2022-07-31T07:43:52.509Z,27.60
2022-07-31T07:46:23.240Z,27.70
2022-07-31T07:48:51.075Z,27.60
2022-07-31T07:51:18.736Z,27.70
2022-07-31T07:53:45.845Z,27.80
2022-07-31T07:56:12.890Z,27.90
2022-07-31T07:58:40.717Z,28.00
2022-07-31T08:01:08.015Z,28.10
2022-07-31T08:03:48.720Z,28.00
2022-07-31T08:06:20.007Z,27.90
2022-07-31T08:08:47.042Z,27.80
2022-07-31T08:11:17.451Z,27.70
2022-07-31T08:13:50.078Z,27.70
2022-07-31T08:16:20.175Z,27.50
2022-07-31T08:18:47.419Z,27.40
2022-07-31T08:21:14.420Z,27.30
2022-07-31T08:23:41.464Z,27.10
2022-07-31T08:26:08.598Z,27.00
2022-07-31T08:28:36.206Z,26.90
2022-07-31T08:31:03.610Z,27.00
2022-07-31T08:33:32.947Z,27.20
2022-07-31T08:36:00.810Z,27.40
2022-07-31T08:38:28.806Z,27.80
2022-07-31T08:40:55.688Z,28.10
2022-07-31T08:44:00.705Z,28.50
2022-07-31T08:46:10.748Z,28.80
2022-07-31T08:48:41.167Z,29.10
2022-07-31T08:51:11.683Z,29.40
2022-07-31T08:53:39.923Z,29.50
2022-07-31T08:56:09.139Z,29.60
2022-07-31T08:58:39.363Z,29.80
2022-07-31T09:01:14.086Z,29.90
2022-07-31T09:03:41.021Z,29.90
2022-07-31T09:06:07.875Z,30.30
2022-07-31T09:08:36.768Z,30.60
2022-07-31T09:11:09.417Z,30.70
2022-07-31T09:13:36.406Z,30.90
2022-07-31T09:16:04.187Z,31.20
2022-07-31T09:18:31.386Z,31.20
2022-07-31T09:21:02.077Z,31.30
2022-07-31T09:23:29.875Z,31.50
2022-07-31T09:25:59.529Z,31.70
2022-07-31T09:28:41.776Z,31.80
2022-07-31T09:31:11.659Z,31.80
2022-07-31T09:33:43.818Z,31.80
2022-07-31T09:36:13.862Z,31.50
2022-07-31T09:38:43.198Z,31.30
2022-07-31T09:41:55.910Z,31.20
2022-07-31T09:44:10.544Z,31.40
2022-07-31T09:46:46.907Z,31.60
2022-07-31T09:49:14.777Z,31.60
2022-07-31T09:51:43.558Z,31.60
2022-07-31T09:54:21.930Z,31.50
2022-07-31T09:56:50.137Z,31.40
2022-07-31T09:59:17.742Z,31.40
2022-07-31T10:01:48.871Z,31.40
2022-07-31T10:04:21.263Z,31.30
2022-07-31T10:06:50.007Z,31.20
2022-07-31T10:09:19.822Z,31.20
2022-07-31T10:11:48.559Z,31.20
2022-07-31T10:14:35.276Z,31.20
2022-07-31T10:17:04.788Z,31.10
2022-07-31T10:19:36.685Z,30.90
2022-07-31T10:22:05.326Z,31.00
2022-07-31T10:24:36.072Z,31.00
2022-07-31T10:27:07.773Z,31.10
2022-07-31T10:29:39.103Z,31.10
2022-07-31T10:32:09.551Z,31.30
2022-07-31T10:34:37.757Z,31.40
2022-07-31T10:37:18.637Z,31.30
2022-07-31T10:39:54.334Z,31.20
2022-07-31T10:42:52.850Z,31.20
2022-07-31T10:45:19.826Z,31.20
2022-07-31T10:47:56.668Z,31.30
2022-07-31T10:50:25.542Z,31.30
2022-07-31T10:52:56.072Z,31.10
2022-07-31T10:55:26.032Z,31.00
2022-07-31T10:57:55.265Z,30.70
2022-07-31T11:00:28.274Z,30.20
2022-07-31T11:02:56.881Z,29.50
2022-07-31T11:05:27.614Z,29.20
2022-07-31T11:08:05.724Z,28.90
2022-07-31T11:10:34.074Z,28.70
2022-07-31T11:13:07.553Z,28.50
2022-07-31T11:15:34.808Z,28.20
2022-07-31T11:18:24.942Z,28.10
2022-07-31T11:21:17.686Z,28.00
2022-07-31T11:24:02.088Z,27.80
2022-07-31T11:26:41.016Z,27.70
2022-07-31T11:30:01.084Z,27.60
2022-07-31T11:32:06.051Z,27.60
2022-07-31T11:34:53.338Z,27.60
2022-07-31T11:37:56.429Z,27.60
2022-07-31T11:40:18.550Z,27.50
2022-07-31T11:42:59.836Z,27.60
2022-07-31T11:45:46.018Z,27.80
2022-07-31T11:48:19.099Z,28.10
2022-07-31T11:50:47.770Z,28.40
2022-07-31T11:53:14.757Z,28.60
2022-07-31T11:55:54.167Z,28.80
2022-07-31T11:58:23.420Z,28.80
2022-07-31T12:01:08.587Z,28.70
2022-07-31T12:03:37.010Z,28.90
2022-07-31T12:06:05.818Z,29.10
2022-07-31T12:08:34.931Z,29.40
2022-07-31T12:11:03.534Z,29.70
2022-07-31T12:13:31.397Z,29.80
2022-07-31T12:16:03.131Z,30.10
2022-07-31T12:18:32.935Z,30.30
2022-07-31T12:21:04.794Z,30.50
2022-07-31T12:23:46.418Z,30.70
2022-07-31T12:26:25.535Z,31.00
2022-07-31T12:29:05.465Z,30.90
2022-07-31T12:31:47.815Z,30.60
2022-07-31T12:34:31.078Z,30.30
2022-07-31T12:37:13.711Z,29.80
2022-07-31T12:39:54.084Z,29.60
2022-07-31T12:42:30.972Z,29.80
2022-07-31T12:45:19.321Z,29.80
2022-07-31T12:47:52.452Z,29.70
2022-07-31T12:50:20.999Z,29.60
2022-07-31T12:52:48.127Z,29.50
2022-07-31T12:55:17.485Z,29.30
2022-07-31T12:57:51.035Z,29.00
2022-07-31T13:00:22.663Z,28.80
2022-07-31T13:02:50.879Z,28.40
2022-07-31T13:05:17.912Z,28.20
2022-07-31T13:07:45.053Z,28.20
2022-07-31T13:10:21.254Z,28.10
2022-07-31T13:12:50.424Z,28.00
2022-07-31T13:15:20.898Z,27.90
2022-07-31T13:17:50.762Z,27.90
2022-07-31T13:20:18.961Z,27.80
2022-07-31T13:22:45.907Z,27.70
2022-07-31T13:25:13.665Z,27.70
2022-07-31T13:27:41.750Z,27.90
2022-07-31T13:30:09.711Z,28.20
2022-07-31T13:32:36.785Z,28.30
2022-07-31T13:35:19.603Z,28.50
2022-07-31T13:37:51.689Z,28.60
2022-07-31T13:40:19.668Z,28.80
2022-07-31T13:42:46.533Z,29.10
2022-07-31T13:45:13.502Z,29.20
2022-07-31T13:47:50.435Z,29.40
2022-07-31T13:50:19.209Z,29.50
2022-07-31T13:52:46.153Z,29.60
2022-07-31T13:55:13.127Z,29.50
2022-07-31T13:57:40.042Z,29.50
2022-07-31T14:00:07.729Z,29.60
2022-07-31T14:02:34.956Z,29.60
2022-07-31T14:05:02.638Z,29.70
2022-07-31T14:07:48.348Z,29.70
2022-07-31T14:10:20.955Z,30.00
2022-07-31T14:12:48.845Z,30.10
2022-07-31T14:15:17.985Z,30.30
2022-07-31T14:17:45.439Z,30.30
2022-07-31T14:20:12.905Z,30.30
2022-07-31T14:22:40.040Z,30.50
2022-07-31T14:25:07.166Z,30.80
2022-07-31T14:27:34.608Z,31.20
2022-07-31T14:30:01.810Z,31.50
2022-07-31T14:32:30.461Z,31.60
2022-07-31T14:34:57.359Z,31.70
2022-07-31T14:37:24.347Z,31.70
2022-07-31T14:39:51.354Z,31.60
2022-07-31T14:42:22.507Z,31.40
2022-07-31T14:44:53.359Z,31.20
2022-07-31T14:47:20.434Z,31.20
2022-07-31T14:50:09.016Z,31.00
2022-07-31T14:52:34.206Z,30.80
2022-07-31T14:55:01.300Z,30.60
2022-07-31T14:57:28.731Z,30.40
2022-07-31T14:59:55.816Z,30.30
2022-07-31T15:02:23.107Z,30.30
2022-07-31T15:04:51.633Z,30.30
2022-07-31T15:07:38.521Z,29.90
2022-07-31T15:10:08.341Z,29.40
2022-07-31T15:12:35.342Z,28.90
2022-07-31T15:15:02.603Z,28.60
2022-07-31T15:17:29.596Z,28.40
2022-07-31T15:19:56.534Z,28.30
2022-07-31T15:22:23.681Z,28.20
2022-07-31T15:24:50.692Z,28.30
2022-07-31T15:27:18.840Z,28.30
2022-07-31T15:30:04.614Z,28.50
2022-07-31T15:32:34.062Z,28.60
2022-07-31T15:35:01.102Z,28.70
2022-07-31T15:37:28.146Z,28.90
2022-07-31T15:40:02.367Z,29.10
2022-07-31T15:42:37.060Z,29.30
2022-07-31T15:45:04.489Z,29.50
2022-07-31T15:47:31.653Z,29.70
2022-07-31T15:49:58.603Z,29.90
2022-07-31T15:52:25.756Z,30.10
2022-07-31T15:54:53.106Z,30.10
2022-07-31T15:57:21.326Z,30.10
2022-07-31T15:59:49.220Z,30.20
2022-07-31T16:02:16.339Z,30.30
2022-07-31T16:04:52.552Z,30.40
2022-07-31T16:08:29.415Z,30.30
2022-07-31T16:10:16.351Z,30.10
2022-07-31T16:12:45.959Z,29.90
2022-07-31T16:15:13.825Z,29.70
2022-07-31T16:17:41.199Z,29.40
2022-07-31T16:20:20.755Z,29.20
2022-07-31T16:22:56.399Z,29.00
2022-07-31T16:25:24.359Z,28.80
2022-07-31T16:27:51.427Z,28.60
2022-07-31T16:30:18.432Z,28.40
2022-07-31T16:32:45.455Z,28.30
2022-07-31T16:35:13.250Z,28.10
2022-07-31T16:37:50.560Z,27.90
2022-07-31T16:40:31.032Z,27.80
2022-07-31T16:43:49.272Z,27.50
2022-07-31T16:45:55.554Z,27.20
2022-07-31T16:48:22.893Z,26.60
2022-07-31T16:50:54.125Z,26.10
2022-07-31T16:54:10.667Z,25.60
2022-07-31T16:56:16.855Z,25.30
2022-07-31T16:58:44.151Z,25.10
2022-07-31T17:01:58.785Z,25.10
2022-07-31T17:04:03.563Z,25.10
2022-07-31T17:06:38.385Z,25.10
2022-07-31T17:09:17.373Z,25.10
2022-07-31T17:11:50.510Z,24.70
2022-07-31T17:14:18.985Z,24.20
2022-07-31T17:16:48.586Z,23.90
2022-07-31T17:19:43.028Z,23.70
2022-07-31T17:22:08.151Z,23.50
2022-07-31T17:24:38.318Z,23.10
2022-07-31T17:27:09.451Z,22.90
2022-07-31T17:29:37.900Z,22.60
2022-07-31T17:32:05.314Z,22.30
2022-07-31T17:34:32.378Z,22.00
2022-07-31T17:36:59.285Z,21.70
2022-07-31T17:39:30.446Z,21.30
2022-07-31T17:41:58.403Z,21.00
2022-07-31T17:44:25.679Z,20.70
2022-07-31T17:46:53.066Z,20.50
2022-07-31T17:49:20.754Z,20.40
2022-07-31T17:51:59.214Z,20.30
2022-07-31T17:54:28.384Z,20.30
2022-07-31T17:56:55.409Z,20.20
2022-07-31T17:59:23.102Z,20.20
2022-07-31T18:01:52.282Z,20.20
2022-07-31T18:04:21.171Z,20.20
2022-07-31T18:06:54.224Z,20.20
2022-07-31T18:09:23.365Z,20.20
2022-07-31T18:11:51.780Z,20.20
2022-07-31T18:14:19.508Z,20.20
2022-07-31T18:16:48.399Z,20.30
2022-07-31T18:19:15.496Z,20.30
2022-07-31T18:21:42.537Z,20.20
2022-07-31T18:24:09.434Z,20.30
2022-07-31T18:26:37.253Z,20.30
2022-07-31T18:29:04.690Z,20.40
2022-07-31T18:31:35.318Z,20.40
2022-07-31T18:34:03.698Z,20.50
2022-07-31T18:36:31.337Z,20.50
2022-07-31T18:38:58.257Z,20.50
2022-07-31T18:41:25.202Z,20.50
2022-07-31T18:43:52.124Z,20.50
2022-07-31T18:46:20.146Z,20.60
2022-07-31T18:48:50.723Z,20.60
2022-07-31T18:51:20.220Z,20.60
2022-07-31T18:53:47.124Z,20.70
2022-07-31T18:56:14.085Z,20.70
2022-07-31T18:58:44.086Z,20.80
2022-07-31T19:01:11.383Z,20.80
2022-07-31T19:03:38.513Z,20.80
2022-07-31T19:06:05.528Z,20.80
2022-07-31T19:08:32.638Z,20.80
2022-07-31T19:10:59.627Z,20.80
2022-07-31T19:13:26.512Z,20.80
2022-07-31T19:15:53.470Z,20.80
2022-07-31T19:18:28.380Z,20.80
2022-07-31T19:21:19.183Z,20.80
2022-07-31T19:23:46.668Z,20.80
2022-07-31T19:26:13.727Z,20.70
2022-07-31T19:28:43.090Z,20.70
2022-07-31T19:31:10.727Z,20.70
2022-07-31T19:33:37.853Z,20.70
2022-07-31T19:36:05.331Z,20.80
2022-07-31T19:38:33.760Z,20.70
2022-07-31T19:41:00.784Z,20.80
2022-07-31T19:43:28.245Z,20.80
2022-07-31T19:46:09.726Z,20.80
2022-07-31T19:48:40.868Z,20.90
2022-07-31T19:51:08.294Z,20.90
2022-07-31T19:53:35.684Z,20.90
2022-07-31T19:56:05.550Z,20.90
2022-07-31T19:58:36.821Z,20.90
2022-07-31T20:01:08.677Z,20.90
2022-07-31T20:03:36.105Z,20.90
2022-07-31T20:06:03.924Z,20.80
2022-07-31T20:08:33.423Z,20.80
2022-07-31T20:11:03.698Z,20.80
2022-07-31T20:13:32.833Z,20.80
2022-07-31T20:15:59.828Z,20.70
2022-07-31T20:18:28.630Z,20.70
2022-07-31T20:20:58.459Z,20.70
2022-07-31T20:23:26.240Z,20.70
2022-07-31T20:25:53.431Z,20.70
2022-07-31T20:28:20.566Z,20.60
2022-07-31T20:30:47.630Z,20.60
2022-07-31T20:33:14.614Z,20.70
2022-07-31T20:35:48.808Z,20.70
2022-07-31T20:38:24.373Z,20.60
2022-07-31T20:40:55.287Z,20.60
2022-07-31T20:43:28.056Z,20.50
2022-07-31T20:45:57.408Z,20.50
2022-07-31T20:48:31.981Z,20.40
2022-07-31T20:51:00.477Z,20.30
2022-07-31T20:53:28.216Z,20.30
2022-07-31T20:55:55.256Z,20.30
2022-07-31T20:58:24.043Z,20.30
2022-07-31T21:00:53.116Z,20.30
2022-07-31T21:03:20.836Z,20.20
2022-07-31T21:06:05.459Z,20.20
2022-07-31T21:08:33.025Z,20.10
2022-07-31T21:11:01.275Z,20.00
2022-07-31T21:13:28.894Z,20.00
2022-07-31T21:15:56.384Z,20.00
2022-07-31T21:18:23.745Z,20.00
2022-07-31T21:20:53.795Z,20.00
2022-07-31T21:23:25.382Z,20.00
2022-07-31T21:25:53.887Z,20.00
2022-07-31T21:28:22.008Z,20.00
2022-07-31T21:30:49.579Z,19.90
2022-07-31T21:33:18.152Z,19.90
2022-07-31T21:35:46.206Z,19.80
2022-07-31T21:38:15.619Z,19.80
2022-07-31T21:40:43.687Z,19.70
2022-07-31T21:43:11.798Z,19.70
2022-07-31T21:45:54.772Z,19.70
2022-07-31T21:48:27.072Z,19.70
2022-07-31T21:50:55.000Z,19.70
2022-07-31T21:53:23.084Z,19.70
2022-07-31T21:55:50.439Z,19.60
2022-07-31T21:58:17.467Z,19.70
2022-07-31T22:00:44.827Z,19.70
2022-07-31T22:03:11.904Z,19.80
2022-07-31T22:05:57.307Z,19.80
2022-07-31T22:08:24.301Z,19.80
2022-07-31T22:10:51.999Z,19.90
2022-07-31T22:13:20.370Z,19.90
2022-07-31T22:15:51.433Z,19.90
2022-07-31T22:18:33.109Z,19.90
2022-07-31T22:21:02.714Z,19.90
2022-07-31T22:23:30.810Z,19.90
2022-07-31T22:25:58.774Z,19.80
2022-07-31T22:28:26.803Z,19.80
2022-07-31T22:30:55.967Z,19.80
2022-07-31T22:33:23.186Z,19.80
2022-07-31T22:35:59.681Z,19.70
2022-07-31T22:38:29.058Z,19.70
2022-07-31T22:40:56.374Z,19.70
2022-07-31T22:44:11.378Z,19.70
2022-07-31T22:46:12.758Z,19.80
2022-07-31T22:48:40.897Z,19.70
2022-07-31T22:51:08.392Z,19.70
2022-07-31T22:53:36.181Z,19.80
2022-07-31T22:56:03.593Z,19.80
2022-07-31T22:58:30.547Z,19.90
2022-07-31T23:00:57.488Z,19.90
2022-07-31T23:03:24.474Z,19.90
2022-07-31T23:06:03.071Z,19.90
2022-07-31T23:08:38.414Z,20.00
2022-07-31T23:11:05.324Z,19.90
2022-07-31T23:13:32.218Z,20.00
2022-07-31T23:15:59.662Z,20.00
2022-07-31T23:18:26.744Z,20.00
2022-07-31T23:20:53.665Z,20.00
2022-07-31T23:23:20.563Z,20.00
2022-07-31T23:25:47.440Z,20.00
2022-07-31T23:28:14.315Z,20.00
2022-07-31T23:30:41.214Z,20.00
2022-07-31T23:33:08.151Z,20.10
2022-07-31T23:35:35.154Z,20.10
2022-07-31T23:38:02.058Z,20.10
2022-07-31T23:40:29.077Z,20.10
2022-07-31T23:42:55.985Z,20.10
2022-07-31T23:45:23.610Z,20.20
2022-07-31T23:47:50.949Z,20.10
2022-07-31T23:50:17.864Z,20.10
2022-07-31T23:52:45.433Z,20.20
2022-07-31T23:55:13.224Z,20.20
2022-07-31T23:57:40.792Z,20.20
